New Rochelle, NY (10801)

10:24 PM EDT on May 27, 2015 (GMT -0400)
Town Of Mamaroneck Fire Department | | Change Station
CLOSE
Current Station
Personal Weather Station
Location: Larchmont, NY
Elevation: 89 ft
Nearby Weather Stations

Elev 89 ft 40.94 °N, 73.76 °W | Updated 8 minutes ago

Rain
Rain
66.0 °F
Feels Like 66.0 °F
N
1.0
Wind Variable Wind from SSE
Gusts 6.0 mph

Today
High -- | Low -- °F
--% Chance of Precip.
Yesterday
High -- | Low -- °F
Precip. -- in
5:28 AM 8:16 PM
Waxing Gibbous, 72% visible
Pressure 30.15 in
Visibility 10.0 miles
Clouds Scattered Clouds 4200 ft
Scattered Clouds 11000 ft
Mostly Cloudy 20000 ft
Dew Point 64 °F
Humidity 93%
Rainfall 0.13 in
Snow Depth Not available.
UV 0 out of 12
Pollen 4.90 out of 12
Air Quality Not available.
Flu Activity Widespread
SPECI KLGA 280220Z 16008KT 10SM -RA SCT042 SCT110 BKN200 21/17 A3015 RMK AO2 TSE19RAB14 P0000 $

More Conditions Fewer Conditions

Pressure 30.15 in
Visibility 10.0 miles
Clouds Scattered Clouds 4200 ft
Scattered Clouds 11000 ft
Mostly Cloudy 20000 ft
Dew Point 64 °F
Humidity 93%
Rainfall 0.13 in
Snow Depth Not available.
UV 0 out of 12
Pollen 4.90 out of 12
Air Quality Not available.
Flu Activity Widespread
SPECI KLGA 280220Z 16008KT 10SM -RA SCT042 SCT110 BKN200 21/17 A3015 RMK AO2 TSE19RAB14 P0000 $

More Conditions Fewer Conditions

10-Day Weather Forecast

Almanac

Astronomy

May. 27, 2015 Rise Set
Actual Time
Civil Twilight
Nautical Twilight
Astronomical Twilight
Moon
Length of Visible Light
Length of Day
Tomorrow will be .
, % of the Moon is Illuminated

Today's Extremes

State Highs State Lows

Community

WunderPhotos

Upload Photos

1,824,860 photos uploaded!

WunderBlogs® & News

Nearby

Air Quality

  Air Quality AQ Index Pollutant
Not available.

Snow Depth

Station Depth Elevation

Earthquake Activity

City Distance Mag. Time & Date
Minimum magnitude displayed is 2.5.

Coastal Water Temperatures

Place Temperature

Stations

Nearby Weather Stations

Station Location Temp. Windchill Dew Point Humidity Wind Precip. Elev Updated Type